Time;durP1;ratioP1;P1;durP2;ratioP2;P2;SDS_P1;SDS_P2;PMS_P1;PMS_P2;Temp;Humidity;BMP_temperature;BMP_pressure;BME280_temperature;BME280_humidity;BME280_pressure;Samples;Min_cycle;Max_cycle;Signal;HPM_P1;HPM_P2
2022/02/24 00:02:18;;;;;;;8.65;4.63;;;;;;;6.82;63.36;97964.84;5052490;28;20092;-83
2022/02/24 00:04:44;;;;;;;9.88;4.55;;;;;;;6.87;63.15;97968.19;5035520;28;20380;-83
2022/02/24 00:07:09;;;;;;;8.07;4.88;;;;;;;6.91;63.69;98001.72;5068608;28;20029;-83
2022/02/24 00:09:35;;;;;;;13.40;4.97;;;;;;;6.71;63.16;97988.31;5032267;28;20045;-84
2022/02/24 00:12:02;;;;;;;10.77;5.38;;;;;;;6.58;63.98;97980.91;5051815;28;20404;-82
2022/02/24 00:14:28;;;;;;;11.02;5.35;;;;;;;6.62;64.46;98014.41;5075379;28;20040;-82
2022/02/24 00:16:54;;;;;;;10.00;5.10;;;;;;;6.55;65.33;98013.78;5035188;28;20025;-82
2022/02/24 00:19:19;;;;;;;10.10;5.10;;;;;;;6.51;64.98;98021.00;5051375;28;20071;-82
2022/02/24 00:21:45;;;;;;;11.15;5.18;;;;;;;6.49;64.25;97992.78;5051618;28;20032;-82
2022/02/24 00:24:10;;;;;;;13.77;5.10;;;;;;;6.53;61.08;98005.00;5068310;28;20501;-82
2022/02/24 00:26:37;;;;;;;8.88;4.65;;;;;;;6.47;62.02;98005.22;5068118;28;20048;-81
2022/02/24 00:29:04;;;;;;;7.35;3.67;;;;;;;6.41;62.15;98005.47;5028624;28;20504;-83
2022/02/24 00:31:46;;;;;;;8.60;3.90;;;;;;;6.45;61.61;97999.13;5024749;28;20029;-83
2022/02/24 00:34:12;;;;;;;7.18;3.53;;;;;;;6.35;60.56;97990.63;5068315;28;20024;-83
2022/02/24 00:36:38;;;;;;;4.60;2.92;;;;;;;6.32;61.22;97993.41;5018103;28;20039;-82
2022/02/24 00:39:04;;;;;;;6.10;3.15;;;;;;;6.30;60.90;97991.75;5051161;28;20116;-82
2022/02/24 00:41:29;;;;;;;4.90;2.97;;;;;;;6.25;61.10;97983.06;5067899;28;20020;-83
2022/02/24 00:43:55;;;;;;;6.68;2.47;;;;;;;6.29;60.52;97974.94;5067874;28;20029;-84
2022/02/24 00:46:21;;;;;;;10.52;3.47;;;;;;;6.26;61.24;97979.50;5034610;28;20081;-84
2022/02/24 00:48:46;;;;;;;9.05;2.92;;;;;;;6.21;61.73;97981.47;5034544;28;20191;-83
2022/02/24 00:51:12;;;;;;;9.95;3.50;;;;;;;6.11;61.50;97961.47;5053520;28;20037;-84
2022/02/24 00:53:41;;;;;;;7.32;2.90;;;;;;;6.24;60.59;97968.06;5051078;28;20408;-83
2022/02/24 00:56:37;;;;;;;7.25;3.05;;;;;;;6.25;58.55;97961.81;5067136;28;20028;-83
2022/02/24 00:59:04;;;;;;;4.30;2.60;;;;;;;6.22;57.37;97952.16;5059211;28;20029;-83
2022/02/24 01:01:29;;;;;;;7.13;2.72;;;;;;;6.22;59.46;97961.94;5057554;28;20032;-82
2022/02/24 01:03:55;;;;;;;7.85;2.78;;;;;;;6.25;58.87;97972.44;5064461;28;20043;-83
2022/02/24 01:06:21;;;;;;;5.88;3.03;;;;;;;6.22;58.75;97961.94;5050777;28;20028;-84
2022/02/24 01:08:46;;;;;;;4.00;2.60;;;;;;;6.18;58.62;97958.53;5067782;28;20053;-84
2022/02/24 01:11:12;;;;;;;6.03;2.97;;;;;;;6.20;58.27;97954.03;5013679;28;20041;-83
2022/02/24 01:13:37;;;;;;;4.68;2.85;;;;;;;6.21;57.73;97957.56;5017695;28;20071;-83
2022/02/24 01:16:03;;;;;;;5.30;2.33;;;;;;;6.27;57.46;97962.63;5046680;28;20098;-84
2022/02/24 01:18:29;;;;;;;3.80;2.05;;;;;;;6.26;55.54;97942.31;5042826;28;20053;-84
2022/02/24 01:20:56;;;;;;;3.80;1.58;;;;;;;6.40;54.90;97954.13;5054608;28;20035;-83
2022/02/24 01:23:21;;;;;;;5.43;1.85;;;;;;;6.40;55.14;97950.59;5067186;28;20033;-83
2022/02/24 01:25:47;;;;;;;4.53;2.08;;;;;;;6.39;54.65;97944.44;5050487;28;20032;-83
2022/02/24 01:28:13;;;;;;;6.68;3.15;;;;;;;6.51;54.67;97959.03;5050661;28;20039;-82
2022/02/24 01:30:38;;;;;;;4.85;2.35;;;;;;;6.49;53.90;97950.25;5050661;28;20033;-84
2022/02/24 01:33:04;;;;;;;3.83;1.90;;;;;;;6.35;53.62;97942.81;5033675;28;20056;-83
2022/02/24 01:35:29;;;;;;;4.60;1.63;;;;;;;6.53;53.68;97957.16;5051378;28;20017;-84
2022/02/24 01:38:09;;;;;;;4.15;1.55;;;;;;;6.55;52.62;97956.16;5050626;28;20024;-84
2022/02/24 01:40:34;;;;;;;3.47;1.60;;;;;;;6.56;52.95;97962.34;5025592;28;20029;-83
2022/02/24 01:43:00;;;;;;;10.40;1.83;;;;;;;6.50;53.27;97951.97;5019034;28;20032;-83
2022/02/24 01:45:25;;;;;;;3.00;2.00;;;;;;;6.50;53.13;97957.28;5016965;28;20029;-83
2022/02/24 01:47:51;;;;;;;3.85;2.10;;;;;;;6.57;53.95;97972.06;5050197;28;20014;-83
2022/02/24 01:50:17;;;;;;;5.45;2.13;;;;;;;6.55;54.25;97976.59;5022209;28;20029;-83
2022/02/24 01:52:44;;;;;;;13.63;1.88;;;;;;;6.47;53.75;97968.91;5017225;28;20029;-83
2022/02/24 01:55:10;;;;;;;2.88;1.75;;;;;;;6.47;53.67;97978.66;5049738;28;20024;-82
2022/02/24 01:57:36;;;;;;;2.85;1.90;;;;;;;6.48;54.24;97975.09;5016901;28;20504;-81
2022/02/24 02:00:05;;;;;;;4.82;1.65;;;;;;;6.44;54.40;97978.78;5053060;28;20040;-84
2022/02/24 02:02:31;;;;;;;5.05;1.63;;;;;;;6.31;54.16;97965.09;5059844;28;20021;-82
2022/02/24 02:04:56;;;;;;;3.83;1.75;;;;;;;6.37;54.06;97978.16;5052195;28;20039;-84
2022/02/24 02:07:22;;;;;;;4.45;1.90;;;;;;;6.29;55.10;97982.03;5069272;28;20403;-83
2022/02/24 02:09:48;;;;;;;2.22;1.60;;;;;;;6.34;55.00;97993.34;5067404;28;20036;-82
2022/02/24 02:12:18;;;;;;;5.63;2.13;;;;;;;6.25;55.57;97983.94;5017071;28;20021;-83
2022/02/24 02:14:43;;;;;;;3.33;1.92;;;;;;;6.17;56.08;97986.03;5033588;28;20028;-82
2022/02/24 02:17:09;;;;;;;7.45;1.70;;;;;;;6.29;57.15;98000.63;5051990;28;20025;-83
2022/02/24 02:19:34;;;;;;;5.85;2.08;;;;;;;6.08;56.90;97986.38;5027755;28;20123;-83
2022/02/24 02:22:00;;;;;;;5.25;2.13;;;;;;;6.25;57.42;98010.50;5036916;28;20029;-83
2022/02/24 02:24:27;;;;;;;4.43;2.20;;;;;;;6.18;57.42;98002.81;5036204;28;20181;-83
2022/02/24 02:26:52;;;;;;;9.32;2.45;;;;;;;6.20;56.62;98014.25;5016347;28;20021;-83
2022/02/24 02:29:18;;;;;;;6.00;2.80;;;;;;;6.21;56.77;98019.50;5050134;28;20039;-83
2022/02/24 02:31:44;;;;;;;6.38;2.85;;;;;;;6.26;57.51;98022.84;5055547;28;20033;-81
2022/02/24 02:34:12;;;;;;;5.68;2.53;;;;;;;6.20;57.73;98022.22;5036608;28;20059;-83
2022/02/24 02:40:00;;;;;;;4.95;2.40;;;;;;;6.00;58.36;98031.78;5074050;28;20066;-82
2022/02/24 02:42:26;;;;;;;13.18;2.30;;;;;;;5.96;58.30;98038.13;5073496;28;20028;-82
2022/02/24 02:44:52;;;;;;;3.70;2.50;;;;;;;5.92;58.96;98039.16;5037476;28;20091;-83
2022/02/24 02:47:17;;;;;;;4.63;2.75;;;;;;;5.97;58.83;98047.81;5053056;28;20029;-83
2022/02/24 02:49:43;;;;;;;5.13;2.20;;;;;;;6.01;58.48;98043.25;5053608;28;20052;-83
2022/02/24 02:52:08;;;;;;;6.72;2.60;;;;;;;6.05;58.93;98044.03;5039985;28;20082;-82
2022/02/24 02:54:34;;;;;;;5.45;2.60;;;;;;;5.97;59.29;98053.13;5053128;28;20033;-82
2022/02/24 02:57:00;;;;;;;3.53;2.50;;;;;;;6.03;59.59;98057.34;5039453;28;20094;-83
2022/02/24 02:59:26;;;;;;;6.35;2.80;;;;;;;6.05;59.72;98065.25;5057122;28;20128;-82
2022/02/24 03:01:53;;;;;;;5.78;3.05;;;;;;;6.17;59.41;98078.09;5021504;28;20544;-82
2022/02/24 03:04:18;;;;;;;5.78;2.50;;;;;;;6.08;59.72;98087.28;5050430;28;20436;-84
2022/02/24 03:06:44;;;;;;;4.20;2.70;;;;;;;6.08;61.92;98089.94;5020161;28;20025;-83
2022/02/24 03:09:10;;;;;;;3.95;2.38;;;;;;;5.78;67.95;98144.88;5019626;28;20036;-84
2022/02/24 03:11:36;;;;;;;6.80;2.63;;;;;;;5.49;73.64;98158.25;5053028;28;20146;-82
2022/02/24 03:14:01;;;;;;;6.78;3.05;;;;;;;5.00;78.24;98127.09;5036178;28;20059;-82
2022/02/24 03:16:27;;;;;;;4.32;2.55;;;;;;;4.75;83.44;98128.75;5019646;28;20043;-82
2022/02/24 03:18:52;;;;;;;9.68;2.80;;;;;;;4.45;87.81;98109.31;5053843;28;20496;-81
2022/02/24 03:21:19;;;;;;;6.03;3.10;;;;;;;4.51;89.04;98116.22;5072718;28;20072;-82
2022/02/24 03:23:45;;;;;;;5.35;2.67;;;;;;;4.33;90.87;98130.84;5039550;28;20039;-84
2022/02/24 03:26:12;;;;;;;5.95;3.08;;;;;;;4.26;93.17;98139.88;5039633;28;20029;-83
2022/02/24 03:28:37;;;;;;;5.70;3.05;;;;;;;4.28;94.82;98123.03;5028132;28;20029;-82
2022/02/24 03:31:05;;;;;;;4.90;2.65;;;;;;;4.38;95.04;98128.94;5017441;28;20036;-83
2022/02/24 03:33:30;;;;;;;9.98;5.97;;;;;;;4.34;95.37;98122.84;5032140;28;20029;-82
2022/02/24 03:35:56;;;;;;;10.75;5.28;;;;;;;4.28;93.53;98106.25;5069828;28;20098;-83
2022/02/24 03:38:43;;;;;;;10.18;4.60;;;;;;;4.40;96.10;98137.69;5073105;28;20492;-82
2022/02/24 03:41:09;;;;;;;6.50;4.10;;;;;;;4.40;96.36;98119.16;5029392;28;20154;-82
2022/02/24 03:43:34;;;;;;;6.95;3.42;;;;;;;4.47;96.95;98136.63;5029386;28;20495;-82
2022/02/24 03:46:00;;;;;;;10.07;4.38;;;;;;;4.51;98.25;98138.28;4998994;28;20026;-85
2022/02/24 03:48:26;;;;;;;7.22;3.40;;;;;;;4.54;97.60;98130.25;5015919;28;20053;-84
2022/02/24 03:50:51;;;;;;;9.05;3.90;;;;;;;4.61;92.91;98128.28;5032449;28;20030;-83
2022/02/24 03:53:17;;;;;;;10.77;4.32;;;;;;;4.71;91.42;98132.38;5015305;28;20029;-82
2022/02/24 03:55:42;;;;;;;7.53;4.13;;;;;;;4.76;88.47;98130.50;5019344;28;20021;-82
2022/02/24 03:58:08;;;;;;;11.35;4.30;;;;;;;4.86;89.98;98127.50;5052218;28;20025;-83
2022/02/24 04:00:33;;;;;;;14.50;4.80;;;;;;;4.91;86.38;98125.59;5019402;28;20017;-83
2022/02/24 04:02:59;;;;;;;7.95;3.80;;;;;;;4.94;81.31;98135.25;5041281;28;20492;-84
2022/02/24 04:05:25;;;;;;;19.15;4.30;;;;;;;4.96;81.60;98132.53;5077235;28;20043;-83
2022/02/24 04:07:52;;;;;;;13.10;5.53;;;;;;;5.08;80.46;98150.72;5018857;28;20029;-83
2022/02/24 04:10:27;;;;;;;23.42;7.80;;;;;;;5.05;79.66;98134.91;5020750;28;20037;-82
2022/02/24 04:12:53;;;;;;;23.10;6.88;;;;;;;5.01;80.81;98142.09;5053311;28;20524;-82
2022/02/24 04:15:19;;;;;;;30.10;8.48;;;;;;;5.06;79.40;98147.25;5052427;28;20060;-83
2022/02/24 04:17:44;;;;;;;37.03;10.05;;;;;;;5.08;76.72;98142.75;5018603;28;20493;-82
2022/02/24 04:20:10;;;;;;;20.40;7.50;;;;;;;5.04;78.33;98139.34;5051457;28;20515;-82
2022/02/24 04:22:35;;;;;;;18.13;7.35;;;;;;;5.03;77.97;98147.34;5018610;28;20092;-83
2022/02/24 04:25:01;;;;;;;17.42;6.85;;;;;;;5.04;78.74;98135.84;5018759;28;20464;-83
2022/02/24 04:27:26;;;;;;;10.07;4.10;;;;;;;5.19;79.22;98164.53;5022131;28;20053;-84
2022/02/24 04:29:52;;;;;;;8.23;4.05;;;;;;;5.16;77.26;98156.66;5053350;28;20099;-82
2022/02/24 04:32:18;;;;;;;8.95;4.05;;;;;;;5.12;77.49;98161.19;5052168;28;20423;-83
2022/02/24 04:34:43;;;;;;;9.95;4.55;;;;;;;5.14;77.48;98159.34;5051565;28;20032;-84
2022/02/24 04:37:09;;;;;;;11.13;4.43;;;;;;;5.21;76.42;98175.94;5080284;28;20017;-84
2022/02/24 04:39:34;;;;;;;8.90;4.35;;;;;;;5.08;75.75;98169.25;5018555;28;20040;-87
2022/02/24 04:42:00;;;;;;;10.95;4.60;;;;;;;5.02;76.10;98169.44;5052023;28;20116;-83
2022/02/24 04:44:26;;;;;;;7.20;4.20;;;;;;;5.06;75.33;98179.06;5051378;28;20059;-83
2022/02/24 04:46:54;;;;;;;10.63;4.38;;;;;;;4.99;76.07;98166.91;5018995;28;20075;-87
2022/02/24 04:49:20;;;;;;;10.55;4.30;;;;;;;4.91;76.21;98172.44;5021264;28;20175;-83
2022/02/24 04:51:45;;;;;;;10.52;4.10;;;;;;;4.84;76.35;98168.22;5068575;28;20044;-84
2022/02/24 04:54:11;;;;;;;10.07;4.90;;;;;;;4.90;77.04;98176.88;5038398;28;20511;-83
2022/02/24 04:56:36;;;;;;;6.65;4.00;;;;;;;4.69;76.56;98161.59;5038469;28;20109;-85
2022/02/24 04:59:02;;;;;;;12.18;4.07;;;;;;;4.83;76.02;98180.59;5064134;28;20051;-86
2022/02/24 05:02:24;;;;;;;7.97;3.60;;;;;;;4.89;77.12;98208.72;5036611;28;20024;-94
2022/02/24 05:04:50;;;;;;;11.32;4.60;;;;;;;4.75;77.24;98192.34;5062683;28;20021;-76
2022/02/24 05:07:16;;;;;;;12.30;4.90;;;;;;;4.91;77.76;98221.03;5066490;28;20032;-76
2022/02/24 05:09:42;;;;;;;16.55;5.70;;;;;;;4.88;76.72;98210.50;5019546;28;20082;-76
2022/02/24 05:12:08;;;;;;;10.35;4.68;;;;;;;4.84;77.72;98206.19;5022664;28;20017;-77
2022/02/24 05:14:35;;;;;;;12.13;5.90;;;;;;;4.93;78.06;98223.63;5065107;28;20071;-75
2022/02/24 05:17:01;;;;;;;19.50;5.60;;;;;;;4.76;75.74;98218.81;5035468;28;20481;-74
2022/02/24 05:19:26;;;;;;;17.38;6.03;;;;;;;4.81;76.47;98222.19;5033960;28;20057;-75
2022/02/24 05:21:52;;;;;;;15.40;5.70;;;;;;;4.66;77.66;98230.56;5042980;28;20538;-88
2022/02/24 05:24:18;;;;;;;11.75;7.20;;;;;;;4.81;77.41;98219.53;5066013;28;20485;-86
2022/02/24 05:26:43;;;;;;;19.00;9.07;;;;;;;4.81;77.38;98218.66;5029842;28;20020;-86
2022/02/24 05:29:09;;;;;;;17.98;8.15;;;;;;;4.70;77.83;98220.75;5033499;28;20024;-87
2022/02/24 05:31:34;;;;;;;15.68;8.30;;;;;;;4.75;76.56;98217.06;5031394;28;20029;-89
2022/02/24 05:34:00;;;;;;;17.88;8.35;;;;;;;4.74;76.16;98215.31;5026188;28;20017;-86
2022/02/24 05:36:26;;;;;;;14.85;7.10;;;;;;;4.70;77.04;98221.63;5081171;28;20036;-89
2022/02/24 05:38:54;;;;;;;14.68;7.90;;;;;;;4.79;77.41;98245.22;5036944;28;20020;-88
2022/02/24 05:41:20;;;;;;;16.48;7.57;;;;;;;4.86;77.49;98244.13;5046029;28;20037;-85
2022/02/24 05:43:47;;;;;;;12.57;6.72;;;;;;;4.89;76.58;98243.19;5024696;28;20029;-87
2022/02/24 05:46:27;;;;;;;17.00;8.32;;;;;;;4.96;76.60;98254.47;5065242;28;20036;-87
2022/02/24 05:48:52;;;;;;;11.70;6.07;;;;;;;4.96;76.72;98254.47;5040620;28;20036;-88
2022/02/24 05:51:18;;;;;;;16.05;7.78;;;;;;;4.95;76.91;98255.41;5051660;28;20542;-86
2022/02/24 05:53:43;;;;;;;20.60;8.13;;;;;;;5.03;77.31;98256.03;5052300;28;20036;-86
2022/02/24 05:56:09;;;;;;;15.82;8.13;;;;;;;5.04;76.36;98258.66;5029600;28;20595;-88
2022/02/24 05:58:34;;;;;;;18.58;8.50;;;;;;;4.95;76.83;98242.13;5022688;28;20017;-87
2022/02/24 06:01:00;;;;;;;19.55;9.38;;;;;;;4.90;76.81;98261.69;5084660;28;20027;-86
2022/02/24 06:03:26;;;;;;;20.77;9.45;;;;;;;4.92;77.64;98256.34;5028116;28;20028;-87
2022/02/24 06:05:53;;;;;;;21.10;9.27;;;;;;;5.00;76.94;98264.06;5066867;28;20086;-87
2022/02/24 06:08:19;;;;;;;31.40;12.40;;;;;;;5.18;76.50;98260.88;5032052;28;20040;-87
2022/02/24 06:10:45;;;;;;;29.70;12.95;;;;;;;5.23;76.71;98259.84;5047147;28;20324;-87
2022/02/24 06:13:10;;;;;;;22.45;11.52;;;;;;;5.44;76.94;98261.00;5024285;28;20028;-87
2022/02/24 06:15:36;;;;;;;31.17;12.27;;;;;;;5.43;76.50;98257.47;5027970;28;20080;-87
2022/02/24 06:18:07;;;;;;;23.88;10.00;;;;;;;5.39;75.86;98254.94;5025188;28;20041;-88
2022/02/24 06:20:32;;;;;;;20.23;9.45;;;;;;;5.46;76.63;98261.81;5073429;28;20032;-87
2022/02/24 06:22:58;;;;;;;22.70;9.60;;;;;;;5.30;75.24;98268.47;5057583;28;20036;-87
2022/02/24 06:25:23;;;;;;;23.50;11.25;;;;;;;5.19;76.67;98257.34;5072953;28;20059;-85
2022/02/24 06:27:49;;;;;;;19.48;10.95;;;;;;;5.28;76.66;98267.66;5039049;28;20029;-86
2022/02/24 06:30:14;;;;;;;20.38;10.15;;;;;;;5.25;76.78;98273.06;5037957;28;20477;-87
2022/02/24 06:32:41;;;;;;;33.05;16.00;;;;;;;5.28;77.25;98273.84;5070471;28;20459;-86
2022/02/24 06:35:08;;;;;;;19.02;10.48;;;;;;;5.18;78.12;98290.06;5070899;28;20130;-87
2022/02/24 06:37:33;;;;;;;17.50;8.93;;;;;;;5.23;78.31;98280.22;5038066;28;20028;-87
2022/02/24 06:39:59;;;;;;;19.02;10.15;;;;;;;5.17;78.12;98288.34;5087936;28;20037;-87
2022/02/24 06:42:25;;;;;;;24.75;13.90;;;;;;;5.07;78.04;98294.81;5065222;28;20491;-87
2022/02/24 06:44:50;;;;;;;25.17;10.10;;;;;;;4.90;78.07;98282.00;5070996;28;20048;-88
2022/02/24 06:47:16;;;;;;;19.80;10.40;;;;;;;5.02;79.10;98292.28;5071339;28;20035;-87
2022/02/24 06:49:43;;;;;;;22.38;10.82;;;;;;;4.99;80.16;98294.13;5072121;28;20025;-86
2022/02/24 06:52:08;;;;;;;20.98;11.52;;;;;;;5.03;79.68;98299.31;5053828;28;20059;-86
2022/02/24 06:54:34;;;;;;;22.77;11.23;;;;;;;5.06;80.01;98296.59;5087641;28;20028;-87
2022/02/24 06:57:00;;;;;;;22.67;10.45;;;;;;;5.16;81.77;98302.50;5037559;28;20029;-87
2022/02/24 06:59:27;;;;;;;60.40;28.15;;;;;;;5.02;83.50;98299.34;5059205;28;20071;-87
2022/02/24 07:01:53;;;;;;;19.55;9.25;;;;;;;4.73;88.37;98311.63;5037523;28;20123;-86
2022/02/24 07:04:19;;;;;;;19.40;8.07;;;;;;;4.54;90.60;98305.06;5038936;28;20036;-86
2022/02/24 07:06:47;;;;;;;12.40;7.15;;;;;;;4.46;93.50;98317.63;5038360;28;20119;-87
2022/02/24 07:09:13;;;;;;;20.52;10.93;;;;;;;4.34;98.03;98321.47;5070417;28;20432;-89
2022/02/24 07:11:39;;;;;;;19.17;9.32;;;;;;;4.28;100.00;98321.59;5071081;28;20029;-85
2022/02/24 07:14:04;;;;;;;18.38;9.20;;;;;;;4.10;100.00;98321.19;5071065;28;20033;-88
2022/02/24 07:16:32;;;;;;;32.40;16.13;;;;;;;4.06;100.00;98316.91;5028052;28;20092;-87
2022/02/24 07:18:57;;;;;;;23.35;10.73;;;;;;;3.99;100.00;98313.53;5037992;28;20080;-88
2022/02/24 07:21:23;;;;;;;14.15;7.68;;;;;;;3.99;100.00;98326.75;5036852;28;20118;-88
2022/02/24 07:23:48;;;;;;;17.00;7.93;;;;;;;3.97;100.00;98338.28;5069270;28;20071;-88
2022/02/24 07:26:14;;;;;;;15.15;6.72;;;;;;;3.83;100.00;98320.06;5070244;28;20477;-87
2022/02/24 07:28:43;;;;;;;20.27;7.43;;;;;;;3.86;100.00;98340.28;5070072;28;20408;-87
2022/02/24 07:31:09;;;;;;;19.05;9.02;;;;;;;3.88;100.00;98341.97;5053943;28;20025;-87
2022/02/24 07:33:34;;;;;;;24.38;12.75;;;;;;;3.89;100.00;98329.63;5036286;28;20477;-87
2022/02/24 07:36:00;;;;;;;38.13;20.85;;;;;;;3.87;100.00;98320.88;5086847;28;20039;-87
2022/02/24 07:38:25;;;;;;;80.88;41.80;;;;;;;3.76;100.00;98337.84;5064452;28;20144;-87
2022/02/24 07:40:51;;;;;;;56.30;29.55;;;;;;;3.77;100.00;98329.00;5088208;28;20024;-87
2022/02/24 07:43:16;;;;;;;43.30;21.38;;;;;;;3.83;100.00;98334.16;5037625;28;20033;-86
2022/02/24 07:45:42;;;;;;;35.67;16.77;;;;;;;3.95;100.00;98337.44;5054006;28;20024;-86
2022/02/24 07:48:08;;;;;;;35.85;16.42;;;;;;;3.95;100.00;98333.00;5026654;28;20035;-86
2022/02/24 07:50:33;;;;;;;29.25;13.40;;;;;;;3.92;100.00;98327.78;5070558;28;20029;-85
2022/02/24 07:52:59;;;;;;;27.48;14.13;;;;;;;4.21;100.00;98337.69;5071416;28;20028;-89
2022/02/24 07:55:24;;;;;;;24.50;12.32;;;;;;;4.07;100.00;98323.91;5064687;28;20469;-87
2022/02/24 07:57:50;;;;;;;22.50;12.02;;;;;;;4.18;100.00;98321.91;5036228;28;20403;-86
2022/02/24 08:00:16;;;;;;;21.88;13.02;;;;;;;4.53;100.00;98336.88;5036472;28;20552;-86
2022/02/24 08:02:43;;;;;;;23.33;13.43;;;;;;;4.70;100.00;98332.91;5052573;28;20035;-87
2022/02/24 08:05:10;;;;;;;25.67;12.80;;;;;;;5.18;100.00;98335.13;5086788;28;20021;-87
2022/02/24 08:07:35;;;;;;;24.42;12.95;;;;;;;5.56;99.57;98332.28;5070177;28;20035;-86
2022/02/24 08:10:01;;;;;;;16.13;8.38;;;;;;;5.82;97.32;98350.94;5053844;28;20036;-87
2022/02/24 08:12:39;;;;;;;21.25;11.52;;;;;;;5.95;93.76;98341.72;5036319;28;20035;-86
2022/02/24 08:15:09;;;;;;;18.48;8.57;;;;;;;5.89;92.69;98339.25;5067586;28;20033;-86
2022/02/24 08:17:34;;;;;;;15.52;8.65;;;;;;;6.12;93.17;98332.38;5035305;28;20432;-87
2022/02/24 08:20:01;;;;;;;14.85;8.55;;;;;;;5.88;91.84;98334.84;5069099;28;20056;-87
2022/02/24 08:22:26;;;;;;;17.52;7.40;;;;;;;5.80;91.70;98326.22;5036568;28;20020;-86
2022/02/24 08:24:52;;;;;;;18.48;9.60;;;;;;;6.03;92.06;98338.81;5070600;28;20032;-86
2022/02/24 08:27:18;;;;;;;15.02;7.32;;;;;;;6.08;93.06;98330.72;5086704;28;20184;-87
2022/02/24 08:29:44;;;;;;;15.85;8.05;;;;;;;6.25;91.50;98329.25;5036102;28;20485;-86
2022/02/24 08:32:09;;;;;;;13.32;7.25;;;;;;;6.04;89.01;98323.75;5035987;28;20028;-87
2022/02/24 08:34:35;;;;;;;14.50;7.20;;;;;;;5.89;89.69;98331.28;5069014;28;20037;-87
2022/02/24 08:37:00;;;;;;;12.80;6.70;;;;;;;6.03;90.79;98335.31;5087302;28;20017;-86
2022/02/24 08:39:26;;;;;;;14.07;7.45;;;;;;;6.09;89.87;98332.47;5068974;28;20135;-85
2022/02/24 08:41:52;;;;;;;14.43;5.70;;;;;;;5.97;89.82;98342.53;5068700;28;20423;-87
2022/02/24 08:44:18;;;;;;;23.67;10.30;;;;;;;5.78;91.05;98332.50;5085812;28;20029;-86
2022/02/24 08:46:45;;;;;;;83.05;43.35;;;;;;;5.86;93.37;98347.31;5085155;28;20500;-85
2022/02/24 08:49:12;;;;;;;23.23;11.60;;;;;;;5.78;94.02;98333.34;5035177;28;20099;-86
2022/02/24 08:51:38;;;;;;;16.25;8.77;;;;;;;6.18;91.76;98337.47;5067679;28;20120;-86
2022/02/24 08:54:03;;;;;;;20.77;8.10;;;;;;;6.51;89.74;98333.72;5035290;28;20063;-90
2022/02/24 08:56:29;;;;;;;13.13;7.00;;;;;;;6.58;86.95;98334.38;5069060;28;20053;-86
2022/02/24 08:58:55;;;;;;;13.82;7.32;;;;;;;6.76;87.03;98347.94;5069313;28;20024;-87
2022/02/24 09:01:20;;;;;;;14.02;7.00;;;;;;;7.06;84.68;98341.53;5068756;28;20056;-87
2022/02/24 09:03:46;;;;;;;16.17;8.98;;;;;;;7.57;82.10;98343.22;5068562;28;20024;-86
2022/02/24 09:06:11;;;;;;;11.63;5.72;;;;;;;7.40;77.67;98343.00;5068198;28;20060;-86
2022/02/24 09:08:37;;;;;;;8.35;5.50;;;;;;;7.04;78.83;98338.06;5034574;28;20052;-85
2022/02/24 09:11:03;;;;;;;13.23;6.57;;;;;;;7.04;81.11;98331.88;5068240;28;20044;-86
2022/02/24 09:13:29;;;;;;;10.82;6.35;;;;;;;7.01;81.30;98347.97;5068520;28;20024;-86
2022/02/24 09:15:55;;;;;;;10.48;5.88;;;;;;;7.20;80.12;98342.84;5035114;28;20057;-86
2022/02/24 09:18:20;;;;;;;12.07;5.97;;;;;;;7.37;78.38;98343.97;5035460;28;20500;-86
2022/02/24 09:20:46;;;;;;;24.27;10.70;;;;;;;7.47;77.09;98336.53;5035273;28;20500;-88
2022/02/24 09:23:12;;;;;;;10.27;5.63;;;;;;;7.61;77.40;98334.22;5068458;28;20412;-86
2022/02/24 09:25:38;;;;;;;12.32;6.70;;;;;;;7.81;77.19;98326.34;5084635;28;20056;-86
2022/02/24 09:28:04;;;;;;;11.35;5.75;;;;;;;8.08;73.74;98341.25;5068880;28;20554;-87
2022/02/24 09:30:29;;;;;;;10.13;6.00;;;;;;;8.26;71.63;98330.78;5036045;28;20115;-86
2022/02/24 09:32:56;;;;;;;14.20;5.88;;;;;;;8.57;69.89;98334.84;5068342;28;20072;-85
2022/02/24 09:35:22;;;;;;;16.55;8.10;;;;;;;8.60;71.94;98337.38;5035182;28;20485;-85
2022/02/24 09:37:48;;;;;;;14.77;7.00;;;;;;;8.76;67.86;98313.63;5034858;28;20029;-86
2022/02/24 09:40:14;;;;;;;11.70;5.00;;;;;;;8.65;68.66;98331.84;5069062;28;20037;-86
2022/02/24 09:42:41;;;;;;;9.10;4.95;;;;;;;9.20;65.99;98315.19;5034957;28;20475;-86
2022/02/24 09:45:08;;;;;;;13.35;6.53;;;;;;;9.64;65.87;98317.69;5034837;28;20032;-85
2022/02/24 09:47:37;;;;;;;15.30;7.55;;;;;;;9.93;64.67;98319.88;5034593;28;20025;-86
2022/02/24 09:50:03;;;;;;;8.70;4.95;;;;;;;10.48;62.01;98310.09;5068223;28;20033;-86
2022/02/24 09:52:29;;;;;;;10.95;5.70;;;;;;;10.85;60.40;98309.13;5067179;28;20442;-84
2022/02/24 09:54:55;;;;;;;9.18;6.28;;;;;;;11.23;56.91;98285.72;5066740;28;20024;-86
2022/02/24 09:57:20;;;;;;;17.48;10.63;;;;;;;11.75;54.97;98286.50;5033966;28;20409;-85
2022/02/24 09:59:46;;;;;;;12.73;6.93;;;;;;;12.75;53.18;98289.66;5066946;28;20024;-86
2022/02/24 10:02:13;;;;;;;10.63;6.47;;;;;;;14.04;49.01;98260.16;5035048;28;20025;-85
2022/02/24 10:05:05;;;;;;;10.48;7.10;;;;;;;14.92;46.18;98259.72;5067408;28;20017;-87
2022/02/24 10:07:30;;;;;;;10.75;5.72;;;;;;;14.81;48.29;98259.56;5082241;28;20630;-87
2022/02/24 10:09:56;;;;;;;13.38;8.55;;;;;;;14.36;46.95;98245.53;5034879;28;20051;-86
2022/02/24 10:12:21;;;;;;;10.90;5.63;;;;;;;14.89;46.56;98243.75;5068584;28;20064;-86
2022/02/24 10:14:47;;;;;;;7.00;4.53;;;;;;;13.62;48.46;98252.16;5068116;28;20385;-86
2022/02/24 10:17:15;;;;;;;6.55;4.60;;;;;;;13.73;48.46;98230.81;5062014;28;20028;-87
2022/02/24 10:19:46;;;;;;;10.13;6.03;;;;;;;14.53;46.55;98234.50;5034138;28;20102;-87
2022/02/24 10:22:31;;;;;;;13.45;7.53;;;;;;;15.07;45.88;98226.34;5067555;28;20033;-85
2022/02/24 10:24:58;;;;;;;12.38;6.03;;;;;;;14.11;46.48;98237.31;5064002;28;20082;-85
2022/02/24 10:27:29;;;;;;;6.90;4.38;;;;;;;13.25;47.99;98227.56;5034251;28;20029;-87
2022/02/24 10:30:06;;;;;;;7.68;4.72;;;;;;;13.61;47.17;98229.78;5034416;28;20029;-86
2022/02/24 10:32:39;;;;;;;5.90;3.50;;;;;;;13.09;48.34;98229.47;5052252;28;20029;-86
2022/02/24 10:35:17;;;;;;;12.15;6.28;;;;;;;12.93;49.36;98231.31;5034099;28;20025;-86
2022/02/24 10:37:43;;;;;;;10.60;5.60;;;;;;;12.30;49.64;98231.50;5068035;28;20499;-86
2022/02/24 10:40:09;;;;;;;8.93;4.90;;;;;;;12.33;50.77;98231.31;5067695;28;20033;-86
2022/02/24 10:42:34;;;;;;;11.93;6.28;;;;;;;13.02;48.34;98212.81;5033070;28;20033;-85
2022/02/24 10:45:16;;;;;;;7.13;4.82;;;;;;;13.14;48.43;98203.19;5066972;28;20032;-86
2022/02/24 10:47:59;;;;;;;52.83;33.22;;;;;;;13.12;48.22;98206.91;5068015;28;20025;-85
2022/02/24 10:50:45;;;;;;;20.05;9.52;;;;;;;12.63;48.69;98203.63;5050312;28;20029;-87
2022/02/24 10:53:11;;;;;;;10.25;5.90;;;;;;;11.33;52.43;98220.88;5042831;28;20520;-86
2022/02/24 10:56:07;;;;;;;12.13;6.45;;;;;;;10.28;56.39;98238.88;5033648;28;20033;-87
2022/02/24 10:58:41;;;;;;;10.82;6.80;;;;;;;9.22;61.34;98243.97;5015184;28;20044;-87
2022/02/24 11:01:15;;;;;;;8.45;4.07;;;;;;;8.56;63.53;98252.22;5070953;28;20025;-89
2022/02/24 11:03:52;;;;;;;8.23;4.10;;;;;;;8.63;62.90;98246.59;5087972;28;20029;-87
2022/02/24 11:06:22;;;;;;;14.20;7.75;;;;;;;8.21;63.03;98244.84;5037689;28;20512;-88
2022/02/24 11:08:50;;;;;;;33.83;16.52;;;;;;;8.21;64.78;98239.50;5042749;28;20052;-87
2022/02/24 11:11:26;;;;;;;11.15;5.93;;;;;;;8.35;64.59;98242.47;5072526;28;20025;-89
2022/02/24 11:13:53;;;;;;;11.85;4.47;;;;;;;8.26;64.16;98234.84;5071298;28;20025;-87
2022/02/24 11:16:18;;;;;;;11.57;6.00;;;;;;;8.32;64.07;98211.50;5038357;28;20409;-88
2022/02/24 11:18:45;;;;;;;18.55;10.68;;;;;;;8.55;64.02;98219.38;5037838;28;20049;-87
2022/02/24 11:21:16;;;;;;;9.40;4.85;;;;;;;8.83;62.31;98210.19;5054306;28;20036;-86
2022/02/24 11:23:44;;;;;;;23.75;12.23;;;;;;;8.73;60.85;98195.50;5037029;28;20353;-86
2022/02/24 11:26:22;;;;;;;11.68;6.50;;;;;;;8.78;61.69;98204.16;5053429;28;20033;-87
2022/02/24 11:29:06;;;;;;;17.67;5.15;;;;;;;9.33;58.95;98189.19;5053756;28;20025;-86
2022/02/24 11:31:53;;;;;;;16.92;4.72;;;;;;;9.74;58.05;98188.09;5053549;28;20036;-86
2022/02/24 11:34:54;;;;;;;12.77;5.88;;;;;;;10.02;55.83;98172.44;5087462;28;20025;-86
2022/02/24 11:37:25;;;;;;;15.13;6.03;;;;;;;10.42;55.99;98181.16;5036785;28;20078;-87
2022/02/24 11:40:22;;;;;;;17.35;10.45;;;;;;;10.31;56.18;98137.09;5036751;28;20132;-90